Time;durP1;ratioP1;P1;durP2;ratioP2;P2;SDS_P1;SDS_P2;PMS_P1;PMS_P2;Temp;Humidity;BMP_temperature;BMP_pressure;BME280_temperature;BME280_humidity;BME280_pressure;Samples;Min_cycle;Max_cycle;Signal;HPM_P1;HPM_P2
2020/12/18 00:01:35;;;;;;;1999.90;999.90;;;;;;;8.53;76.65;101909.53;15871637;28;20493;-59
2020/12/18 00:09:09;;;;;;;1999.90;999.90;;;;;;;8.55;76.69;101906.47;15871105;28;20047;-60
2020/12/18 00:16:42;;;;;;;;;;;;;;;8.41;76.73;101911.84;15871470;28;20160;-60
2020/12/18 00:24:15;;;;;;;1999.90;999.90;;;;;;;8.25;77.06;101913.91;15852514;28;19919;-61
2020/12/18 00:31:48;;;;;;;1999.90;999.90;;;;;;;8.23;76.79;101915.28;15871014;28;20059;-61
2020/12/18 00:39:21;;;;;;;1999.90;999.90;;;;;;;8.26;76.49;101921.13;15851857;28;20074;-58
2020/12/18 00:46:55;;;;;;;1999.90;999.90;;;;;;;8.25;76.57;101929.75;15850343;28;20587;-59
2020/12/18 00:54:28;;;;;;;1999.90;999.90;;;;;;;8.27;76.46;101928.34;15867384;28;20193;-61
2020/12/18 01:02:04;;;;;;;;;;;;;;;8.37;76.04;101930.25;15834440;28;20048;-59
2020/12/18 01:09:38;;;;;;;1999.90;999.90;;;;;;;8.21;76.59;101928.66;15850430;28;19926;-62
2020/12/18 01:17:14;;;;;;;1999.90;999.90;;;;;;;8.25;76.72;101933.34;15850053;28;20100;-61
2020/12/18 01:24:50;;;;;;;1999.90;999.90;;;;;;;8.42;76.63;101934.94;15833034;28;20040;-60
2020/12/18 01:32:24;;;;;;;1999.90;999.90;;;;;;;8.53;76.12;101939.28;15828972;28;20043;-59
2020/12/18 01:40:03;;;;;;;1999.90;999.90;;;;;;;8.49;76.07;101957.69;15846260;28;20413;-59
2020/12/18 01:47:45;;;;;;;1999.90;999.90;;;;;;;8.62;75.59;101954.25;15790357;28;20039;-61
2020/12/18 01:55:21;;;;;;;1999.90;999.90;;;;;;;8.47;75.83;101946.88;15832155;28;20050;-58
2020/12/18 02:02:55;;;;;;;1999.90;999.90;;;;;;;8.51;75.47;101966.59;15819326;28;20070;-62
2020/12/18 02:10:56;;;;;;;1999.90;999.90;;;;;;;8.25;75.77;101958.38;15860371;28;20209;-61
2020/12/18 02:18:31;;;;;;;1999.90;999.90;;;;;;;8.25;75.71;101968.69;15860721;28;20032;-59
2020/12/18 02:26:06;;;;;;;1999.90;999.90;;;;;;;8.08;76.09;101967.09;15860657;28;20108;-59
2020/12/18 02:33:41;;;;;;;1999.90;999.90;;;;;;;8.18;76.21;101976.50;15860306;28;20043;-59
2020/12/18 02:41:20;;;;;;;1999.90;999.90;;;;;;;8.29;75.30;101978.94;15859597;28;20039;-61
2020/12/18 02:49:06;;;;;;;1999.90;999.90;;;;;;;8.38;75.10;101970.84;15876731;28;20117;-60
2020/12/18 02:56:50;;;;;;;1999.90;999.90;;;;;;;8.39;75.13;101983.63;15859162;28;20105;-58
2020/12/18 03:04:32;;;;;;;1999.90;999.90;;;;;;;8.41;74.54;101978.59;15858164;28;20035;-60
2020/12/18 03:12:14;;;;;;;1999.90;999.90;;;;;;;8.26;74.88;101975.91;15857515;28;20048;-60
2020/12/18 03:19:47;;;;;;;1999.90;999.90;;;;;;;8.17;74.75;101984.00;15857144;28;20548;-60
2020/12/18 03:27:30;;;;;;;1999.90;999.90;;;;;;;8.10;75.09;101975.13;15840134;28;20044;-57
2020/12/18 03:35:10;;;;;;;1999.90;999.90;;;;;;;7.95;75.38;101984.41;15856629;28;20064;-60
2020/12/18 03:42:46;;;;;;;1999.90;999.90;;;;;;;8.00;75.19;101976.00;15856595;28;20066;-57
2020/12/18 03:50:20;;;;;;;1999.90;999.90;;;;;;;8.01;74.77;101985.19;15855295;28;20067;-58
2020/12/18 03:57:58;;;;;;;1999.90;999.90;;;;;;;7.81;75.17;101986.97;15837461;28;20039;-57
2020/12/18 04:05:48;;;;;;;1999.90;999.90;;;;;;;7.57;75.62;101994.25;15854196;28;20041;-57
2020/12/18 04:13:23;;;;;;;1999.90;999.90;;;;;;;7.37;75.98;101994.28;15837405;28;20047;-57
2020/12/18 04:20:58;;;;;;;1999.90;999.90;;;;;;;7.28;76.45;101990.41;15836705;28;20453;-57
2020/12/18 04:28:44;;;;;;;1999.90;999.90;;;;;;;7.56;76.26;102005.66;15853600;28;20066;-60
2020/12/18 04:36:19;;;;;;;1999.90;999.90;;;;;;;7.43;75.88;101994.00;15852925;28;20374;-57
2020/12/18 04:43:53;;;;;;;1999.90;999.90;;;;;;;7.44;75.90;102008.72;15852005;28;20039;-56
2020/12/18 04:51:40;;;;;;;1999.90;999.90;;;;;;;7.47;76.02;102010.94;15851633;28;20112;-57
2020/12/18 04:59:23;;;;;;;1999.90;999.90;;;;;;;7.55;75.15;102006.75;15852820;28;20078;-60
2020/12/18 05:07:12;;;;;;;1999.90;999.90;;;;;;;7.42;75.87;102010.97;15835443;28;20138;-60
2020/12/18 05:14:51;;;;;;;1999.90;999.90;;;;;;;7.42;75.68;102016.50;15852049;28;20064;-60
2020/12/18 05:22:37;;;;;;;1999.90;999.90;;;;;;;7.22;75.83;102026.53;15851444;28;20071;-60
2020/12/18 05:30:40;;;;;;;1999.90;999.90;;;;;;;7.26;75.68;102023.19;15832143;28;20050;-60
2020/12/18 05:38:36;;;;;;;1999.90;999.90;;;;;;;7.22;75.83;102031.25;15862134;28;20055;-58
2020/12/18 05:46:23;;;;;;;1999.90;999.90;;;;;;;7.20;75.89;102027.94;15849436;28;20044;-60
2020/12/18 05:54:15;;;;;;;1999.90;999.90;;;;;;;7.18;76.08;102035.69;15832264;28;20513;-58
2020/12/18 06:02:02;;;;;;;1999.90;999.90;;;;;;;7.18;76.22;102033.72;15832344;28;20044;-55
2020/12/18 06:09:57;;;;;;;1999.90;999.90;;;;;;;7.14;76.26;102043.75;15866080;28;20057;-55
2020/12/18 06:17:44;;;;;;;1999.90;999.90;;;;;;;7.13;75.64;102047.63;15832492;28;20139;-61
2020/12/18 06:25:18;;;;;;;1999.90;999.90;;;;;;;7.03;76.19;102057.91;15831044;28;20054;-60
2020/12/18 06:33:11;;;;;;;1999.90;999.90;;;;;;;7.13;75.43;102044.03;15864917;28;20043;-63
2020/12/18 06:40:46;;;;;;;1999.90;999.90;;;;;;;6.98;75.25;102060.66;15865325;28;20054;-63
2020/12/18 06:48:37;;;;;;;1999.90;999.90;;;;;;;7.00;75.12;102062.06;15854649;28;20074;-62
2020/12/18 06:56:29;;;;;;;1999.90;999.90;;;;;;;6.56;75.78;102056.97;15858690;28;20390;-63
2020/12/18 07:04:39;;;;;;;1999.90;999.90;;;;;;;6.27;77.22;102055.81;15847303;28;20104;-63
2020/12/18 07:12:12;;;;;;;1999.90;999.90;;;;;;;6.22;76.10;102045.50;15840826;28;20047;-62
2020/12/18 07:19:46;;;;;;;1999.90;999.90;;;;;;;6.21;76.48;102049.41;15857406;28;20114;-62
2020/12/18 07:27:24;;;;;;;1999.90;999.90;;;;;;;6.21;76.26;102043.84;15839648;28;20237;-62
2020/12/18 07:35:08;;;;;;;1999.90;999.90;;;;;;;6.28;76.42;102052.75;15856741;28;20746;-62
2020/12/18 07:42:53;;;;;;;1999.90;999.90;;;;;;;6.06;76.58;102063.19;15855959;28;20055;-62
2020/12/18 07:50:27;;;;;;;1999.90;999.90;;;;;;;6.07;76.02;102051.84;15874190;28;20067;-62
2020/12/18 07:57:59;;;;;;;1999.90;999.90;;;;;;;6.29;75.30;102053.59;15873028;28;20043;-62
2020/12/18 08:05:35;;;;;;;1999.90;999.90;;;;;;;5.99;76.27;102057.91;15872801;28;20036;-62
2020/12/18 08:13:08;;;;;;;1999.90;999.90;;;;;;;5.94;75.85;102071.75;15854645;28;20048;-62
2020/12/18 08:20:44;;;;;;;1999.90;999.90;;;;;;;6.06;75.51;102063.19;15872702;28;20180;-61
2020/12/18 08:28:21;;;;;;;1999.90;999.90;;;;;;;6.11;75.53;102071.53;15853625;28;20139;-62
2020/12/18 08:35:55;;;;;;;1999.90;999.90;;;;;;;6.45;74.76;102077.47;15872464;28;20044;-62
2020/12/18 08:43:28;;;;;;;1999.90;999.90;;;;;;;6.35;74.87;102077.44;15854438;28;20055;-62
2020/12/18 08:51:03;;;;;;;1999.90;999.90;;;;;;;6.71;74.05;102077.56;15871218;28;20126;-61
2020/12/18 08:58:35;;;;;;;1999.90;999.90;;;;;;;6.89;73.50;102083.44;15851463;28;20043;-61
2020/12/18 09:06:12;;;;;;;1999.90;999.90;;;;;;;7.40;72.34;102083.44;15868345;28;20043;-63
2020/12/18 09:13:47;;;;;;;1999.90;999.90;;;;;;;8.04;70.39;102077.22;15869226;28;20039;-62
2020/12/18 09:21:22;;;;;;;1999.90;999.90;;;;;;;9.34;66.36;102083.41;15850333;28;20592;-62
2020/12/18 09:28:55;;;;;;;1999.90;999.90;;;;;;;9.63;64.60;102086.22;15868120;28;20040;-62
2020/12/18 09:36:29;;;;;;;1999.90;999.90;;;;;;;10.94;62.32;102084.91;15867951;28;20036;-62
2020/12/18 09:44:02;;;;;;;1999.90;999.90;;;;;;;13.09;57.35;102083.22;15849585;28;20035;-62
2020/12/18 09:51:36;;;;;;;1999.90;999.90;;;;;;;13.77;54.45;102078.47;15848996;28;20487;-61
2020/12/18 09:59:09;;;;;;;1999.90;999.90;;;;;;;13.50;54.37;102085.88;15867172;28;20040;-63
2020/12/18 10:06:43;;;;;;;1999.90;999.90;;;;;;;13.58;54.66;102076.69;15849171;28;20138;-63
2020/12/18 10:14:17;;;;;;;1999.90;999.90;;;;;;;14.16;53.88;102074.81;15849661;28;20044;-62
2020/12/18 10:21:51;;;;;;;1999.90;999.90;;;;;;;13.49;55.05;102069.38;15876003;28;20043;-62
2020/12/18 10:29:24;;;;;;;;;;;;;;;13.67;53.94;102070.31;15879569;28;20048;-62
2020/12/18 10:36:58;;;;;;;1999.90;999.90;;;;;;;13.57;54.80;102069.44;15879134;28;19955;-65
2020/12/18 10:44:30;;;;;;;;;;;;;;;14.00;53.80;102057.59;15878970;28;20047;-63
2020/12/18 10:52:05;;;;;;;1999.90;999.90;;;;;;;13.57;54.68;102051.78;15860055;28;19923;-63
2020/12/18 10:59:37;;;;;;;1999.90;999.90;;;;;;;13.76;54.38;102060.81;15878028;28;20040;-62
2020/12/18 11:07:11;;;;;;;1999.90;999.90;;;;;;;15.26;50.77;102068.91;15857613;28;20108;-63
2020/12/18 11:14:45;;;;;;;1999.90;999.90;;;;;;;15.30;49.85;102066.25;15857619;28;20031;-63
2020/12/18 11:22:19;;;;;;;1999.90;999.90;;;;;;;15.51;49.92;102060.75;15875695;28;20067;-63
2020/12/18 11:29:52;;;;;;;1999.90;999.90;;;;;;;16.22;48.12;102049.75;15874144;28;20036;-63
2020/12/18 11:37:27;;;;;;;1999.90;999.90;;;;;;;16.80;47.14;102059.38;15874702;28;20044;-63
2020/12/18 11:44:59;;;;;;;;;;;;;;;17.73;44.81;102049.56;15874515;28;20092;-63
2020/12/18 11:52:33;;;;;;;1999.90;999.90;;;;;;;18.66;43.14;102038.53;15873829;28;19920;-63
2020/12/18 12:00:08;;;;;;;1999.90;999.90;;;;;;;19.63;40.74;102026.00;15854579;28;20460;-63
2020/12/18 12:07:46;;;;;;;1999.90;999.90;;;;;;;22.64;35.98;102031.94;15853888;28;20108;-63
2020/12/18 12:15:19;;;;;;;1999.90;999.90;;;;;;;19.83;40.26;102022.09;15872178;28;20474;-63
2020/12/18 12:22:52;;;;;;;;;;;;;;;20.72;38.47;102015.75;15853952;28;20047;-63
2020/12/18 12:30:25;;;;;;;1999.90;999.90;;;;;;;21.35;36.86;102006.16;15853001;28;19976;-63
2020/12/18 12:37:59;;;;;;;1999.90;999.90;;;;;;;21.87;36.30;102011.16;15870682;28;20497;-63
2020/12/18 12:45:32;;;;;;;;;;;;;;;24.74;31.53;102029.25;15852049;28;20509;-63
2020/12/18 12:53:05;;;;;;;1999.90;999.90;;;;;;;19.30;40.68;102014.97;15852001;28;19952;-63
2020/12/18 13:00:38;;;;;;;1999.90;999.90;;;;;;;16.19;47.76;102007.38;15869330;28;20036;-63
2020/12/18 13:08:12;;;;;;;1999.90;999.90;;;;;;;14.24;52.08;102020.69;15850992;28;20051;-63
2020/12/18 13:15:46;;;;;;;1999.90;999.90;;;;;;;14.55;51.95;102023.44;15868689;28;20454;-63
2020/12/18 13:23:20;;;;;;;1999.90;999.90;;;;;;;15.94;48.43;102014.78;15868499;28;20055;-63
2020/12/18 13:30:53;;;;;;;1999.90;999.90;;;;;;;13.50;54.44;102014.94;15849729;28;20462;-63
2020/12/18 13:38:27;;;;;;;1999.90;999.90;;;;;;;12.91;56.73;102026.22;15849952;28;20442;-62
2020/12/18 13:46:01;;;;;;;1999.90;999.90;;;;;;;11.89;59.49;102022.06;15867760;28;20055;-63
2020/12/18 13:53:34;;;;;;;1999.90;999.90;;;;;;;11.28;61.45;102021.22;15870838;28;20478;-62
2020/12/18 14:01:07;;;;;;;1999.90;999.90;;;;;;;10.74;63.39;102021.84;15879513;28;20480;-63
2020/12/18 14:08:41;;;;;;;1999.90;999.90;;;;;;;10.96;62.96;102026.78;15880146;28;20047;-63
2020/12/18 14:16:14;;;;;;;1999.90;999.90;;;;;;;10.90;63.13;102028.00;15861482;28;20051;-63
2020/12/18 14:23:48;;;;;;;1999.90;999.90;;;;;;;10.88;63.44;102024.69;15860663;28;20479;-63
2020/12/18 14:31:20;;;;;;;1999.90;999.90;;;;;;;10.75;63.29;102025.47;15878415;28;20508;-62
2020/12/18 14:38:55;;;;;;;1999.90;999.90;;;;;;;10.57;63.70;102022.34;15878004;28;20416;-62
2020/12/18 14:46:28;;;;;;;1999.90;999.90;;;;;;;10.19;65.03;102015.88;15859490;28;20028;-63
2020/12/18 14:54:02;;;;;;;1999.90;999.90;;;;;;;9.80;66.22;102011.34;15858662;28;20461;-63
2020/12/18 15:01:36;;;;;;;1999.90;999.90;;;;;;;9.55;67.30;102000.47;15875912;28;20486;-62
2020/12/18 15:09:10;;;;;;;1999.90;999.90;;;;;;;9.49;67.78;102018.38;15854968;28;20387;-61
2020/12/18 15:16:42;;;;;;;1999.90;999.90;;;;;;;9.59;67.32;102003.47;15871229;28;20036;-63
2020/12/18 15:24:17;;;;;;;1999.90;999.90;;;;;;;9.38;67.90;102002.84;15863413;28;20066;-62
2020/12/18 15:31:50;;;;;;;1999.90;999.90;;;;;;;9.35;67.71;102001.50;15852239;28;20048;-62
2020/12/18 15:39:23;;;;;;;1999.90;999.90;;;;;;;9.02;68.94;101985.66;15873555;28;20090;-63
2020/12/18 15:46:56;;;;;;;1999.90;999.90;;;;;;;8.81;69.98;101982.22;15872794;28;20408;-62
2020/12/18 15:54:30;;;;;;;1999.90;999.90;;;;;;;8.55;70.78;101976.88;15854955;28;20046;-63
2020/12/18 16:02:03;;;;;;;1999.90;999.90;;;;;;;8.52;70.52;101980.19;15872434;28;20120;-63
2020/12/18 16:09:37;;;;;;;;;;;;;;;8.55;70.80;101968.53;15837802;28;20047;-63
2020/12/18 16:17:10;;;;;;;1999.90;999.90;;;;;;;8.56;70.43;101959.03;15853430;28;19924;-63
2020/12/18 16:24:43;;;;;;;1999.90;999.90;;;;;;;8.49;70.43;101957.69;15853356;28;20044;-63
2020/12/18 16:32:17;;;;;;;1999.90;999.90;;;;;;;8.49;70.08;101939.06;15836255;28;20051;-62
2020/12/18 16:39:51;;;;;;;1999.90;999.90;;;;;;;8.39;70.10;101939.13;15852584;28;20043;-62
2020/12/18 16:47:24;;;;;;;1999.90;999.90;;;;;;;8.05;70.89;101928.75;15835024;28;20138;-59
2020/12/18 16:54:57;;;;;;;1999.90;999.90;;;;;;;7.89;71.56;101910.47;15870191;28;20047;-59
2020/12/18 17:02:30;;;;;;;1999.90;999.90;;;;;;;7.71;72.15;101895.31;15870294;28;20060;-61
2020/12/18 17:10:04;;;;;;;1999.90;999.90;;;;;;;7.70;72.15;101888.06;15871506;28;20067;-57
2020/12/18 17:17:36;;;;;;;;;;;;;;;7.75;72.09;101906.66;15870014;28;20058;-58
2020/12/18 17:25:10;;;;;;;1999.90;999.90;;;;;;;7.89;71.29;101910.47;15850067;28;19923;-57
2020/12/18 17:32:43;;;;;;;1999.90;999.90;;;;;;;7.82;70.90;101907.19;15849717;28;20072;-60
2020/12/18 17:40:16;;;;;;;1999.90;999.90;;;;;;;7.76;70.85;101900.81;15868660;28;20475;-60
2020/12/18 17:47:49;;;;;;;;;;;;;;;7.71;70.88;101911.13;15869020;28;20475;-62
2020/12/18 17:55:23;;;;;;;1999.90;999.90;;;;;;;7.50;71.33;101913.16;15832376;28;20010;-61
2020/12/18 18:02:56;;;;;;;1999.90;999.90;;;;;;;7.67;70.62;101908.09;15867793;28;20056;-60
2020/12/18 18:10:29;;;;;;;1999.90;999.90;;;;;;;7.59;70.81;101919.78;15866980;28;20091;-60
2020/12/18 18:18:02;;;;;;;1999.90;999.90;;;;;;;7.51;70.29;101921.22;15866184;28;20050;-61
2020/12/18 18:25:35;;;;;;;1999.90;999.90;;;;;;;7.39;70.18;101933.75;15831634;28;20046;-60
2020/12/18 18:33:08;;;;;;;1999.90;999.90;;;;;;;7.11;70.74;101930.50;15867141;28;20047;-58
2020/12/18 18:40:42;;;;;;;1999.90;999.90;;;;;;;7.12;71.27;101932.16;15853282;28;20046;-60
2020/12/18 18:48:15;;;;;;;1999.90;999.90;;;;;;;7.12;70.59;101937.72;15860815;28;20105;-60
2020/12/18 18:55:48;;;;;;;1999.90;999.90;;;;;;;6.80;71.92;101918.59;15857876;28;20066;-56
2020/12/18 19:03:21;;;;;;;1999.90;999.90;;;;;;;6.50;73.45;101911.09;15876366;28;20371;-58
2020/12/18 19:10:55;;;;;;;1999.90;999.90;;;;;;;6.44;73.98;101914.16;15840522;28;20663;-58
2020/12/18 19:18:28;;;;;;;1999.90;999.90;;;;;;;6.26;74.00;101905.28;15839884;28;20408;-58
2020/12/18 19:26:02;;;;;;;1999.90;999.90;;;;;;;6.18;75.03;101897.50;15856566;28;20044;-57
2020/12/18 19:33:35;;;;;;;1999.90;999.90;;;;;;;6.06;74.83;101913.56;15874935;28;20481;-57
2020/12/18 19:41:10;;;;;;;1999.90;999.90;;;;;;;6.06;74.12;101905.25;15880054;27;20066;-60
2020/12/18 19:48:44;;;;;;;1999.90;999.90;;;;;;;6.13;73.87;101916.88;15872841;28;20501;-58
2020/12/18 19:56:18;;;;;;;1999.90;999.90;;;;;;;5.92;73.63;101912.38;15853330;28;20039;-57
2020/12/18 20:03:50;;;;;;;1999.90;999.90;;;;;;;5.65;74.61;101905.09;15853753;28;20047;-56
2020/12/18 20:11:26;;;;;;;1999.90;999.90;;;;;;;5.84;74.20;101910.16;15853140;28;20185;-61
2020/12/18 20:18:59;;;;;;;1999.90;999.90;;;;;;;6.11;72.87;101926.56;15852684;28;20052;-60
2020/12/18 20:26:32;;;;;;;1999.90;999.90;;;;;;;5.90;72.59;101920.13;15871554;28;20043;-62
2020/12/18 20:34:05;;;;;;;1999.90;999.90;;;;;;;5.67;73.71;101922.25;15851374;28;20096;-61
2020/12/18 20:41:39;;;;;;;1999.90;999.90;;;;;;;5.92;73.05;101917.94;15869525;28;20040;-63
2020/12/18 20:49:12;;;;;;;1999.90;999.90;;;;;;;5.98;72.22;101916.84;15869015;28;20040;-62
2020/12/18 20:56:45;;;;;;;1999.90;999.90;;;;;;;5.94;71.58;101912.94;15869837;28;20054;-60
2020/12/18 21:04:18;;;;;;;1999.90;999.90;;;;;;;5.40;73.18;101903.03;15850875;28;20039;-62
2020/12/18 21:11:52;;;;;;;1999.90;999.90;;;;;;;5.56;72.22;101890.09;15838471;28;20047;-60
2020/12/18 21:19:24;;;;;;;1999.90;999.90;;;;;;;5.34;73.24;101889.44;15850734;28;20389;-63
2020/12/18 21:26:58;;;;;;;1999.90;999.90;;;;;;;5.28;73.30;101893.28;15849378;28;20035;-63
2020/12/18 21:34:30;;;;;;;1999.90;999.90;;;;;;;5.17;73.52;101873.84;15866733;27;20412;-63
2020/12/18 21:42:04;;;;;;;1999.90;999.90;;;;;;;5.19;72.82;101868.03;15868813;28;20135;-62
2020/12/18 21:49:36;;;;;;;1999.90;999.90;;;;;;;4.96;74.25;101858.25;15867755;28;20091;-62
2020/12/18 21:57:10;;;;;;;1999.90;999.90;;;;;;;5.11;73.52;101863.88;15867379;28;20523;-62
2020/12/18 22:04:43;;;;;;;1999.90;999.90;;;;;;;5.07;73.54;101857.19;15832587;28;20075;-62
2020/12/18 22:12:18;;;;;;;1999.90;999.90;;;;;;;5.14;72.18;101865.28;15849035;28;20047;-62
2020/12/18 22:19:51;;;;;;;1999.90;999.90;;;;;;;4.99;72.98;101857.69;15878636;28;20040;-62
2020/12/18 22:27:24;;;;;;;1999.90;999.90;;;;;;;4.90;72.74;101860.16;15878513;28;20047;-62
2020/12/18 22:34:57;;;;;;;1999.90;999.90;;;;;;;4.76;73.03;101861.72;15841299;28;20046;-63
2020/12/18 22:42:33;;;;;;;1999.90;999.90;;;;;;;4.90;72.40;101864.88;15860893;28;20568;-63
2020/12/18 22:50:10;;;;;;;1999.90;999.90;;;;;;;4.81;72.64;101864.53;15877563;28;20048;-64
2020/12/18 22:57:44;;;;;;;1999.90;999.90;;;;;;;4.56;73.06;101867.09;15876988;28;20454;-63
2020/12/18 23:05:17;;;;;;;1999.90;999.90;;;;;;;4.04;75.01;101857.53;15876725;28;20123;-62
2020/12/18 23:12:51;;;;;;;;;;;;;;;4.22;75.02;101849.97;15877009;28;20054;-63
2020/12/18 23:20:24;;;;;;;1999.90;999.90;;;;;;;3.98;75.24;101844.78;15876280;28;19919;-63
2020/12/18 23:27:58;;;;;;;1999.90;999.90;;;;;;;4.10;74.70;101847.38;15855999;28;20065;-62
2020/12/18 23:35:31;;;;;;;1999.90;999.90;;;;;;;3.82;75.62;101844.88;15874114;28;20035;-61
2020/12/18 23:43:04;;;;;;;1999.90;999.90;;;;;;;3.95;75.71;101836.16;15856557;28;20054;-60
2020/12/18 23:50:37;;;;;;;1999.90;999.90;;;;;;;3.87;75.69;101826.47;15855884;28;20051;-61
2020/12/18 23:58:11;;;;;;;1999.90;999.90;;;;;;;3.71;76.50;101821.84;15873635;28;20047;-61
